sensor_id;sensor_type;location;lat;lon;timestamp;P1;durP1;ratioP1;P2;durP2;ratioP2
54665;SDS011;40566;50.006;36.180;2023-11-18T00:01:48;11.15;;;4.32;;
54665;SDS011;40566;50.006;36.180;2023-11-18T00:06:49;11.43;;;4.43;;
54665;SDS011;40566;50.006;36.180;2023-11-18T00:11:49;12.20;;;4.20;;
54665;SDS011;40566;50.006;36.180;2023-11-18T00:16:50;17.83;;;4.82;;
54665;SDS011;40566;50.006;36.180;2023-11-18T00:21:50;15.05;;;4.38;;
54665;SDS011;40566;50.006;36.180;2023-11-18T00:26:51;10.35;;;4.18;;
54665;SDS011;40566;50.006;36.180;2023-11-18T00:31:52;10.20;;;3.83;;
54665;SDS011;40566;50.006;36.180;2023-11-18T00:36:52;13.40;;;5.43;;
54665;SDS011;40566;50.006;36.180;2023-11-18T00:41:53;11.23;;;4.43;;
54665;SDS011;40566;50.006;36.180;2023-11-18T00:46:54;14.52;;;3.97;;
54665;SDS011;40566;50.006;36.180;2023-11-18T00:51:55;14.15;;;5.22;;
54665;SDS011;40566;50.006;36.180;2023-11-18T00:56:55;13.40;;;4.38;;
54665;SDS011;40566;50.006;36.180;2023-11-18T01:01:56;12.25;;;5.15;;
54665;SDS011;40566;50.006;36.180;2023-11-18T01:06:56;13.23;;;4.70;;
54665;SDS011;40566;50.006;36.180;2023-11-18T01:11:57;10.32;;;4.40;;
54665;SDS011;40566;50.006;36.180;2023-11-18T01:16:58;10.25;;;4.05;;
54665;SDS011;40566;50.006;36.180;2023-11-18T01:21:59;20.02;;;5.32;;
54665;SDS011;40566;50.006;36.180;2023-11-18T01:27:00;10.45;;;4.65;;
54665;SDS011;40566;50.006;36.180;2023-11-18T01:32:01;15.10;;;5.15;;
54665;SDS011;40566;50.006;36.180;2023-11-18T01:37:08;9.83;;;3.70;;
54665;SDS011;40566;50.006;36.180;2023-11-18T01:42:09;12.13;;;4.53;;
54665;SDS011;40566;50.006;36.180;2023-11-18T01:47:10;15.75;;;4.90;;
54665;SDS011;40566;50.006;36.180;2023-11-18T01:52:12;15.40;;;4.75;;
54665;SDS011;40566;50.006;36.180;2023-11-18T01:57:13;8.35;;;3.92;;
54665;SDS011;40566;50.006;36.180;2023-11-18T02:02:16;14.85;;;3.88;;
54665;SDS011;40566;50.006;36.180;2023-11-18T02:07:17;10.95;;;5.07;;
54665;SDS011;40566;50.006;36.180;2023-11-18T02:17:58;10.48;;;3.95;;
54665;SDS011;40566;50.006;36.180;2023-11-18T02:23:02;11.35;;;4.13;;
54665;SDS011;40566;50.006;36.180;2023-11-18T02:28:02;12.50;;;4.75;;
54665;SDS011;40566;50.006;36.180;2023-11-18T02:38:07;12.20;;;3.58;;
54665;SDS011;40566;50.006;36.180;2023-11-18T02:43:10;9.85;;;4.07;;
54665;SDS011;40566;50.006;36.180;2023-11-18T02:48:11;6.20;;;2.78;;
54665;SDS011;40566;50.006;36.180;2023-11-18T02:53:12;8.88;;;3.15;;
54665;SDS011;40566;50.006;36.180;2023-11-18T02:58:13;11.90;;;4.55;;
54665;SDS011;40566;50.006;36.180;2023-11-18T03:03:13;10.23;;;4.05;;
54665;SDS011;40566;50.006;36.180;2023-11-18T03:08:14;11.93;;;3.70;;
54665;SDS011;40566;50.006;36.180;2023-11-18T03:13:14;6.28;;;3.17;;
54665;SDS011;40566;50.006;36.180;2023-11-18T03:18:15;8.50;;;2.78;;
54665;SDS011;40566;50.006;36.180;2023-11-18T03:23:16;8.90;;;3.40;;
54665;SDS011;40566;50.006;36.180;2023-11-18T03:28:16;14.85;;;3.03;;
54665;SDS011;40566;50.006;36.180;2023-11-18T03:33:17;8.32;;;2.90;;
54665;SDS011;40566;50.006;36.180;2023-11-18T03:38:18;9.27;;;2.85;;
54665;SDS011;40566;50.006;36.180;2023-11-18T03:43:19;5.95;;;2.70;;
54665;SDS011;40566;50.006;36.180;2023-11-18T03:48:20;4.70;;;2.08;;
54665;SDS011;40566;50.006;36.180;2023-11-18T03:53:20;5.72;;;2.72;;
54665;SDS011;40566;50.006;36.180;2023-11-18T03:58:21;6.53;;;2.25;;
54665;SDS011;40566;50.006;36.180;2023-11-18T04:03:22;8.07;;;2.70;;
54665;SDS011;40566;50.006;36.180;2023-11-18T04:08:22;7.40;;;2.88;;
54665;SDS011;40566;50.006;36.180;2023-11-18T04:13:23;6.18;;;2.75;;
54665;SDS011;40566;50.006;36.180;2023-11-18T04:18:23;5.18;;;1.65;;
54665;SDS011;40566;50.006;36.180;2023-11-18T04:23:24;5.10;;;1.92;;
54665;SDS011;40566;50.006;36.180;2023-11-18T04:28:25;7.22;;;2.72;;
54665;SDS011;40566;50.006;36.180;2023-11-18T04:33:27;7.20;;;2.80;;
54665;SDS011;40566;50.006;36.180;2023-11-18T04:38:29;8.45;;;3.17;;
54665;SDS011;40566;50.006;36.180;2023-11-18T04:43:30;7.05;;;2.42;;
54665;SDS011;40566;50.006;36.180;2023-11-18T04:48:30;7.55;;;3.25;;
54665;SDS011;40566;50.006;36.180;2023-11-18T04:53:31;2.53;;;1.40;;
54665;SDS011;40566;50.006;36.180;2023-11-18T04:58:33;5.18;;;2.13;;
54665;SDS011;40566;50.006;36.180;2023-11-18T05:03:35;6.75;;;2.83;;
54665;SDS011;40566;50.006;36.180;2023-11-18T05:08:36;4.90;;;1.58;;
54665;SDS011;40566;50.006;36.180;2023-11-18T05:13:37;6.00;;;2.03;;
54665;SDS011;40566;50.006;36.180;2023-11-18T05:18:40;9.05;;;3.67;;
54665;SDS011;40566;50.006;36.180;2023-11-18T05:23:40;3.05;;;1.55;;
54665;SDS011;40566;50.006;36.180;2023-11-18T05:28:41;6.25;;;1.95;;
54665;SDS011;40566;50.006;36.180;2023-11-18T05:33:45;6.35;;;2.90;;
54665;SDS011;40566;50.006;36.180;2023-11-18T05:38:51;5.65;;;2.50;;
54665;SDS011;40566;50.006;36.180;2023-11-18T05:43:52;5.70;;;2.58;;
54665;SDS011;40566;50.006;36.180;2023-11-18T05:48:56;8.70;;;3.40;;
54665;SDS011;40566;50.006;36.180;2023-11-18T05:53:57;9.38;;;3.70;;
54665;SDS011;40566;50.006;36.180;2023-11-18T05:58:58;11.85;;;4.57;;
54665;SDS011;40566;50.006;36.180;2023-11-18T06:03:58;4.97;;;1.85;;
54665;SDS011;40566;50.006;36.180;2023-11-18T06:09:00;12.43;;;2.85;;
54665;SDS011;40566;50.006;36.180;2023-11-18T06:14:05;11.25;;;4.25;;
54665;SDS011;40566;50.006;36.180;2023-11-18T06:19:08;5.97;;;2.55;;
54665;SDS011;40566;50.006;36.180;2023-11-18T06:24:10;6.60;;;3.35;;
54665;SDS011;40566;50.006;36.180;2023-11-18T06:29:11;8.40;;;3.05;;
54665;SDS011;40566;50.006;36.180;2023-11-18T06:34:12;14.98;;;4.75;;
54665;SDS011;40566;50.006;36.180;2023-11-18T06:39:12;4.85;;;2.42;;
54665;SDS011;40566;50.006;36.180;2023-11-18T06:44:14;7.35;;;2.90;;
54665;SDS011;40566;50.006;36.180;2023-11-18T06:49:23;5.75;;;2.60;;
54665;SDS011;40566;50.006;36.180;2023-11-18T06:54:25;4.68;;;2.53;;
54665;SDS011;40566;50.006;36.180;2023-11-18T06:59:27;6.53;;;2.65;;
54665;SDS011;40566;50.006;36.180;2023-11-18T07:04:28;3.88;;;1.77;;
54665;SDS011;40566;50.006;36.180;2023-11-18T07:09:28;3.60;;;1.55;;
54665;SDS011;40566;50.006;36.180;2023-11-18T07:14:29;3.90;;;1.80;;
54665;SDS011;40566;50.006;36.180;2023-11-18T07:19:30;4.68;;;1.90;;
54665;SDS011;40566;50.006;36.180;2023-11-18T07:24:31;6.72;;;3.05;;
54665;SDS011;40566;50.006;36.180;2023-11-18T07:29:32;4.63;;;1.98;;
54665;SDS011;40566;50.006;36.180;2023-11-18T07:34:32;5.82;;;2.47;;
54665;SDS011;40566;50.006;36.180;2023-11-18T07:39:33;6.85;;;1.92;;
54665;SDS011;40566;50.006;36.180;2023-11-18T07:44:48;5.22;;;2.53;;
54665;SDS011;40566;50.006;36.180;2023-11-18T07:49:49;6.25;;;2.40;;
54665;SDS011;40566;50.006;36.180;2023-11-18T07:54:49;4.13;;;1.83;;
54665;SDS011;40566;50.006;36.180;2023-11-18T07:59:52;6.55;;;2.47;;
54665;SDS011;40566;50.006;36.180;2023-11-18T08:04:53;5.35;;;2.20;;
54665;SDS011;40566;50.006;36.180;2023-11-18T08:09:54;4.35;;;1.58;;
54665;SDS011;40566;50.006;36.180;2023-11-18T08:14:54;3.47;;;1.85;;
54665;SDS011;40566;50.006;36.180;2023-11-18T08:19:55;3.63;;;1.70;;
54665;SDS011;40566;50.006;36.180;2023-11-18T08:24:56;4.70;;;1.80;;
54665;SDS011;40566;50.006;36.180;2023-11-18T08:29:57;4.85;;;1.80;;
54665;SDS011;40566;50.006;36.180;2023-11-18T08:34:58;4.28;;;1.88;;
54665;SDS011;40566;50.006;36.180;2023-11-18T08:40:00;4.75;;;1.67;;
54665;SDS011;40566;50.006;36.180;2023-11-18T08:45:01;9.52;;;2.97;;
54665;SDS011;40566;50.006;36.180;2023-11-18T08:50:01;7.88;;;2.00;;
54665;SDS011;40566;50.006;36.180;2023-11-18T08:55:12;3.97;;;2.10;;
54665;SDS011;40566;50.006;36.180;2023-11-18T09:00:26;5.45;;;2.22;;
54665;SDS011;40566;50.006;36.180;2023-11-18T09:05:48;7.38;;;3.50;;
54665;SDS011;40566;50.006;36.180;2023-11-18T09:10:56;4.18;;;1.77;;
54665;SDS011;40566;50.006;36.180;2023-11-18T09:15:58;4.90;;;2.15;;
54665;SDS011;40566;50.006;36.180;2023-11-18T09:21:00;4.80;;;2.38;;
54665;SDS011;40566;50.006;36.180;2023-11-18T09:26:04;4.93;;;2.33;;
54665;SDS011;40566;50.006;36.180;2023-11-18T09:31:07;2.53;;;1.42;;
54665;SDS011;40566;50.006;36.180;2023-11-18T09:36:11;3.38;;;1.63;;
54665;SDS011;40566;50.006;36.180;2023-11-18T09:41:13;3.05;;;1.65;;
54665;SDS011;40566;50.006;36.180;2023-11-18T09:46:14;6.55;;;2.13;;
54665;SDS011;40566;50.006;36.180;2023-11-18T09:51:23;4.57;;;1.88;;
54665;SDS011;40566;50.006;36.180;2023-11-18T10:02:08;4.78;;;1.80;;
54665;SDS011;40566;50.006;36.180;2023-11-18T10:07:10;8.52;;;2.75;;
54665;SDS011;40566;50.006;36.180;2023-11-18T10:12:12;4.82;;;2.15;;
54665;SDS011;40566;50.006;36.180;2023-11-18T10:17:16;12.23;;;5.38;;
54665;SDS011;40566;50.006;36.180;2023-11-18T10:22:21;6.93;;;3.33;;
54665;SDS011;40566;50.006;36.180;2023-11-18T10:27:27;7.25;;;1.92;;
54665;SDS011;40566;50.006;36.180;2023-11-18T10:32:28;5.78;;;2.42;;
54665;SDS011;40566;50.006;36.180;2023-11-18T10:37:29;5.05;;;2.05;;
54665;SDS011;40566;50.006;36.180;2023-11-18T10:42:30;6.32;;;2.67;;
54665;SDS011;40566;50.006;36.180;2023-11-18T10:47:33;4.22;;;1.70;;
54665;SDS011;40566;50.006;36.180;2023-11-18T10:52:38;4.10;;;2.00;;
54665;SDS011;40566;50.006;36.180;2023-11-18T10:57:41;4.55;;;1.67;;
54665;SDS011;40566;50.006;36.180;2023-11-18T11:02:42;3.90;;;2.13;;
54665;SDS011;40566;50.006;36.180;2023-11-18T11:07:43;4.53;;;1.98;;
54665;SDS011;40566;50.006;36.180;2023-11-18T11:12:49;3.53;;;1.52;;
54665;SDS011;40566;50.006;36.180;2023-11-18T11:17:54;4.22;;;1.60;;
54665;SDS011;40566;50.006;36.180;2023-11-18T11:23:14;4.68;;;2.17;;
54665;SDS011;40566;50.006;36.180;2023-11-18T11:28:31;8.05;;;2.47;;
54665;SDS011;40566;50.006;36.180;2023-11-18T11:33:46;5.07;;;2.42;;
54665;SDS011;40566;50.006;36.180;2023-11-18T11:38:55;4.80;;;2.00;;
54665;SDS011;40566;50.006;36.180;2023-11-18T11:43:56;6.15;;;2.70;;
54665;SDS011;40566;50.006;36.180;2023-11-18T11:48:59;6.07;;;2.13;;
54665;SDS011;40566;50.006;36.180;2023-11-18T11:54:11;4.97;;;2.22;;
54665;SDS011;40566;50.006;36.180;2023-11-18T11:59:16;4.35;;;1.75;;
54665;SDS011;40566;50.006;36.180;2023-11-18T12:04:38;7.90;;;2.50;;
54665;SDS011;40566;50.006;36.180;2023-11-18T12:09:42;17.83;;;2.38;;
54665;SDS011;40566;50.006;36.180;2023-11-18T12:15:05;3.33;;;1.63;;
54665;SDS011;40566;50.006;36.180;2023-11-18T12:26:02;3.83;;;2.20;;
54665;SDS011;40566;50.006;36.180;2023-11-18T12:31:41;4.05;;;1.88;;
54665;SDS011;40566;50.006;36.180;2023-11-18T12:42:57;3.53;;;1.92;;
54665;SDS011;40566;50.006;36.180;2023-11-18T12:47:59;3.90;;;1.77;;
54665;SDS011;40566;50.006;36.180;2023-11-18T12:53:11;4.13;;;1.42;;
54665;SDS011;40566;50.006;36.180;2023-11-18T12:58:14;10.15;;;3.75;;
54665;SDS011;40566;50.006;36.180;2023-11-18T13:03:15;8.45;;;2.03;;
54665;SDS011;40566;50.006;36.180;2023-11-18T13:08:16;5.03;;;2.00;;
54665;SDS011;40566;50.006;36.180;2023-11-18T13:13:16;4.63;;;2.13;;
54665;SDS011;40566;50.006;36.180;2023-11-18T13:18:19;4.05;;;1.83;;
54665;SDS011;40566;50.006;36.180;2023-11-18T13:23:20;2.65;;;1.38;;
54665;SDS011;40566;50.006;36.180;2023-11-18T13:28:22;4.05;;;1.92;;
54665;SDS011;40566;50.006;36.180;2023-11-18T13:33:25;5.80;;;1.95;;
54665;SDS011;40566;50.006;36.180;2023-11-18T13:38:26;5.45;;;2.95;;
54665;SDS011;40566;50.006;36.180;2023-11-18T13:43:26;3.92;;;1.92;;
54665;SDS011;40566;50.006;36.180;2023-11-18T13:48:27;4.85;;;2.08;;
54665;SDS011;40566;50.006;36.180;2023-11-18T13:53:28;8.27;;;2.53;;
54665;SDS011;40566;50.006;36.180;2023-11-18T13:58:31;3.80;;;1.80;;
54665;SDS011;40566;50.006;36.180;2023-11-18T14:03:34;6.00;;;2.10;;
54665;SDS011;40566;50.006;36.180;2023-11-18T14:08:38;5.43;;;2.65;;
54665;SDS011;40566;50.006;36.180;2023-11-18T14:13:39;4.25;;;1.95;;
54665;SDS011;40566;50.006;36.180;2023-11-18T14:18:39;3.15;;;1.48;;
54665;SDS011;40566;50.006;36.180;2023-11-18T14:23:41;3.45;;;1.75;;
54665;SDS011;40566;50.006;36.180;2023-11-18T14:28:42;4.57;;;1.70;;
54665;SDS011;40566;50.006;36.180;2023-11-18T14:33:43;4.38;;;2.03;;
54665;SDS011;40566;50.006;36.180;2023-11-18T14:38:44;6.70;;;2.17;;
54665;SDS011;40566;50.006;36.180;2023-11-18T14:43:45;4.47;;;2.33;;
54665;SDS011;40566;50.006;36.180;2023-11-18T14:48:46;8.98;;;2.00;;
54665;SDS011;40566;50.006;36.180;2023-11-18T14:53:47;5.93;;;1.90;;
54665;SDS011;40566;50.006;36.180;2023-11-18T14:58:48;5.40;;;2.65;;
54665;SDS011;40566;50.006;36.180;2023-11-18T15:03:49;7.25;;;2.10;;
54665;SDS011;40566;50.006;36.180;2023-11-18T15:08:50;8.60;;;2.67;;
54665;SDS011;40566;50.006;36.180;2023-11-18T15:13:51;11.40;;;3.28;;
54665;SDS011;40566;50.006;36.180;2023-11-18T15:18:55;5.97;;;2.70;;
54665;SDS011;40566;50.006;36.180;2023-11-18T15:23:56;3.17;;;1.92;;
54665;SDS011;40566;50.006;36.180;2023-11-18T15:29:01;5.03;;;2.28;;
54665;SDS011;40566;50.006;36.180;2023-11-18T15:34:03;6.93;;;2.40;;
54665;SDS011;40566;50.006;36.180;2023-11-18T15:39:03;6.68;;;2.75;;
54665;SDS011;40566;50.006;36.180;2023-11-18T15:44:04;6.22;;;2.03;;
54665;SDS011;40566;50.006;36.180;2023-11-18T15:49:05;4.75;;;2.25;;
54665;SDS011;40566;50.006;36.180;2023-11-18T15:54:06;1.77;;;1.08;;
54665;SDS011;40566;50.006;36.180;2023-11-18T15:59:06;2.95;;;1.30;;
54665;SDS011;40566;50.006;36.180;2023-11-18T16:04:07;4.88;;;1.80;;
54665;SDS011;40566;50.006;36.180;2023-11-18T16:09:08;3.63;;;1.70;;
54665;SDS011;40566;50.006;36.180;2023-11-18T16:14:09;3.47;;;1.67;;
54665;SDS011;40566;50.006;36.180;2023-11-18T16:19:09;4.47;;;1.88;;
54665;SDS011;40566;50.006;36.180;2023-11-18T16:24:10;1.58;;;0.93;;
54665;SDS011;40566;50.006;36.180;2023-11-18T16:29:11;5.63;;;1.60;;
54665;SDS011;40566;50.006;36.180;2023-11-18T16:34:11;1.90;;;1.20;;
54665;SDS011;40566;50.006;36.180;2023-11-18T16:39:12;3.00;;;1.38;;
54665;SDS011;40566;50.006;36.180;2023-11-18T16:44:12;1.88;;;0.88;;
54665;SDS011;40566;50.006;36.180;2023-11-18T16:49:13;3.08;;;1.30;;
54665;SDS011;40566;50.006;36.180;2023-11-18T16:54:17;2.78;;;1.27;;
54665;SDS011;40566;50.006;36.180;2023-11-18T16:59:19;4.88;;;1.98;;
54665;SDS011;40566;50.006;36.180;2023-11-18T17:04:20;4.97;;;1.90;;
54665;SDS011;40566;50.006;36.180;2023-11-18T17:09:20;4.32;;;1.73;;
54665;SDS011;40566;50.006;36.180;2023-11-18T17:14:21;4.18;;;1.50;;
54665;SDS011;40566;50.006;36.180;2023-11-18T17:19:23;2.08;;;1.02;;
54665;SDS011;40566;50.006;36.180;2023-11-18T17:24:23;2.25;;;1.45;;
54665;SDS011;40566;50.006;36.180;2023-11-18T17:29:24;4.10;;;1.45;;
54665;SDS011;40566;50.006;36.180;2023-11-18T17:34:25;1.65;;;1.08;;
54665;SDS011;40566;50.006;36.180;2023-11-18T17:39:28;3.20;;;1.25;;
54665;SDS011;40566;50.006;36.180;2023-11-18T17:44:28;3.00;;;1.48;;
54665;SDS011;40566;50.006;36.180;2023-11-18T17:49:29;6.47;;;3.00;;
54665;SDS011;40566;50.006;36.180;2023-11-18T17:54:31;2.83;;;1.40;;
54665;SDS011;40566;50.006;36.180;2023-11-18T17:59:32;2.72;;;1.40;;
54665;SDS011;40566;50.006;36.180;2023-11-18T18:04:32;2.38;;;1.20;;
54665;SDS011;40566;50.006;36.180;2023-11-18T18:09:33;5.60;;;2.05;;
54665;SDS011;40566;50.006;36.180;2023-11-18T18:14:34;2.17;;;1.10;;
54665;SDS011;40566;50.006;36.180;2023-11-18T18:19:34;3.97;;;1.30;;
54665;SDS011;40566;50.006;36.180;2023-11-18T18:24:37;3.20;;;1.33;;
54665;SDS011;40566;50.006;36.180;2023-11-18T18:29:37;4.97;;;2.25;;
54665;SDS011;40566;50.006;36.180;2023-11-18T18:34:38;2.33;;;1.30;;
54665;SDS011;40566;50.006;36.180;2023-11-18T18:39:39;9.07;;;2.63;;
54665;SDS011;40566;50.006;36.180;2023-11-18T18:44:40;3.03;;;1.52;;
54665;SDS011;40566;50.006;36.180;2023-11-18T18:49:41;2.22;;;0.95;;
54665;SDS011;40566;50.006;36.180;2023-11-18T18:54:42;5.07;;;0.98;;
54665;SDS011;40566;50.006;36.180;2023-11-18T18:59:44;2.08;;;1.30;;
54665;SDS011;40566;50.006;36.180;2023-11-18T19:04:45;4.60;;;1.52;;
54665;SDS011;40566;50.006;36.180;2023-11-18T19:09:47;3.20;;;1.38;;
54665;SDS011;40566;50.006;36.180;2023-11-18T19:14:49;3.58;;;2.08;;
54665;SDS011;40566;50.006;36.180;2023-11-18T19:19:49;3.13;;;1.30;;
54665;SDS011;40566;50.006;36.180;2023-11-18T19:24:50;5.10;;;1.55;;
54665;SDS011;40566;50.006;36.180;2023-11-18T19:29:51;3.85;;;1.67;;
54665;SDS011;40566;50.006;36.180;2023-11-18T19:34:52;10.65;;;2.15;;
54665;SDS011;40566;50.006;36.180;2023-11-18T19:39:53;5.90;;;2.50;;
54665;SDS011;40566;50.006;36.180;2023-11-18T19:44:54;2.00;;;0.75;;
54665;SDS011;40566;50.006;36.180;2023-11-18T19:49:54;2.47;;;1.15;;
54665;SDS011;40566;50.006;36.180;2023-11-18T19:54:57;2.10;;;1.05;;
54665;SDS011;40566;50.006;36.180;2023-11-18T19:59:58;5.22;;;2.13;;
54665;SDS011;40566;50.006;36.180;2023-11-18T20:04:58;2.95;;;1.52;;
54665;SDS011;40566;50.006;36.180;2023-11-18T20:09:59;3.40;;;1.70;;
54665;SDS011;40566;50.006;36.180;2023-11-18T20:15:03;1.27;;;0.93;;
54665;SDS011;40566;50.006;36.180;2023-11-18T20:20:05;1.88;;;1.20;;
54665;SDS011;40566;50.006;36.180;2023-11-18T20:25:08;3.15;;;1.40;;
54665;SDS011;40566;50.006;36.180;2023-11-18T20:30:10;4.47;;;1.85;;
54665;SDS011;40566;50.006;36.180;2023-11-18T20:35:11;4.03;;;1.42;;
54665;SDS011;40566;50.006;36.180;2023-11-18T20:40:12;2.90;;;1.58;;
54665;SDS011;40566;50.006;36.180;2023-11-18T20:45:13;3.50;;;1.27;;
54665;SDS011;40566;50.006;36.180;2023-11-18T20:50:14;1.75;;;0.98;;
54665;SDS011;40566;50.006;36.180;2023-11-18T20:55:15;3.00;;;1.63;;
54665;SDS011;40566;50.006;36.180;2023-11-18T21:00:16;1.60;;;0.90;;
54665;SDS011;40566;50.006;36.180;2023-11-18T21:05:17;0.95;;;0.70;;
54665;SDS011;40566;50.006;36.180;2023-11-18T21:10:19;3.03;;;1.63;;
54665;SDS011;40566;50.006;36.180;2023-11-18T21:15:21;1.98;;;1.08;;
54665;SDS011;40566;50.006;36.180;2023-11-18T21:20:24;4.03;;;1.35;;
54665;SDS011;40566;50.006;36.180;2023-11-18T21:25:25;1.15;;;0.90;;
54665;SDS011;40566;50.006;36.180;2023-11-18T21:30:26;0.93;;;0.77;;
54665;SDS011;40566;50.006;36.180;2023-11-18T21:35:27;2.08;;;1.40;;
54665;SDS011;40566;50.006;36.180;2023-11-18T21:40:27;1.90;;;1.17;;
54665;SDS011;40566;50.006;36.180;2023-11-18T21:45:28;1.55;;;1.05;;
54665;SDS011;40566;50.006;36.180;2023-11-18T21:50:30;4.38;;;1.98;;
54665;SDS011;40566;50.006;36.180;2023-11-18T21:55:30;2.10;;;1.30;;
54665;SDS011;40566;50.006;36.180;2023-11-18T22:00:31;3.78;;;0.85;;
54665;SDS011;40566;50.006;36.180;2023-11-18T22:05:31;3.42;;;1.55;;
54665;SDS011;40566;50.006;36.180;2023-11-18T22:10:32;4.18;;;1.90;;
54665;SDS011;40566;50.006;36.180;2023-11-18T22:15:32;4.03;;;1.77;;
54665;SDS011;40566;50.006;36.180;2023-11-18T22:20:34;2.22;;;1.05;;
54665;SDS011;40566;50.006;36.180;2023-11-18T22:25:37;4.13;;;2.05;;
54665;SDS011;40566;50.006;36.180;2023-11-18T22:30:38;2.67;;;0.77;;
54665;SDS011;40566;50.006;36.180;2023-11-18T22:35:38;3.42;;;1.55;;
54665;SDS011;40566;50.006;36.180;2023-11-18T22:40:39;3.35;;;1.63;;
54665;SDS011;40566;50.006;36.180;2023-11-18T22:45:40;0.80;;;0.63;;
54665;SDS011;40566;50.006;36.180;2023-11-18T22:50:41;2.25;;;1.20;;
54665;SDS011;40566;50.006;36.180;2023-11-18T22:55:41;4.40;;;2.15;;
54665;SDS011;40566;50.006;36.180;2023-11-18T23:00:42;2.95;;;1.33;;
54665;SDS011;40566;50.006;36.180;2023-11-18T23:05:49;2.20;;;0.90;;
54665;SDS011;40566;50.006;36.180;2023-11-18T23:10:53;2.28;;;1.17;;
54665;SDS011;40566;50.006;36.180;2023-11-18T23:15:53;3.22;;;1.02;;
54665;SDS011;40566;50.006;36.180;2023-11-18T23:20:56;1.95;;;0.98;;
54665;SDS011;40566;50.006;36.180;2023-11-18T23:25:57;3.38;;;2.05;;
54665;SDS011;40566;50.006;36.180;2023-11-18T23:30:58;1.92;;;0.93;;
54665;SDS011;40566;50.006;36.180;2023-11-18T23:36:01;2.30;;;1.05;;
54665;SDS011;40566;50.006;36.180;2023-11-18T23:41:03;1.58;;;1.05;;
54665;SDS011;40566;50.006;36.180;2023-11-18T23:46:04;5.60;;;1.48;;
54665;SDS011;40566;50.006;36.180;2023-11-18T23:51:06;3.15;;;1.42;;
54665;SDS011;40566;50.006;36.180;2023-11-18T23:56:06;2.22;;;1.33;;
